PWSweather.com
Personal Weather Stations
Station Observations
RAINWISE1
Rainwise Factory, Bar Harbor, ME 04609

Rainwise FactoryBar Harbor, ME 04609

Lat: 44.3897429696629, Lon: -68.2077813148499

Elevation: 29

Station Type: Rainwise MK-III

www.rainwise.com

High Low Average
Temperature 77.2°F25.1°C 58.0°F14.4°C 65.0°F18.3°C
Dew Point 58.9°F14.9°C 50.5°F10.3°C 55.6°F13.1°C
Winds 15.1 mph 24.3 kmh 0.1 mph 0.2 kmh 5.0 mph SW8.0 kmh SW
Wind Gusts 21.6 mph34.8 kmh 1.1 mph1.8 kmh 8.0 mph12.9 kmh
Humidity 99% 50% 73%
Pressure 29.86 in1011.2 mb 29.63 in1003.4 mb -
Precipitation 0.00 in0.0 mm - -
Hour Temp Dew Point Humidity Winds Wind Gusts Pressure Precip Precip Rate Daily Precip Total
12:04 AM 61.0°F16.1°C 51.1°F10.6°C 70% 4.9 mph WSW7.9 kmh WSW 9.0 mph14.5 kmh 29.85 in1010.8 mb 0.00 in0.0 mm 0.00 in0.0 mm 0.00 in0.0 mm
12:09 AM 61.0°F16.1°C 51.5°F10.8°C 71% 7.7 mph WSW12.4 kmh WSW 14.6 mph23.5 kmh 29.85 in1010.8 mb 0.00 in0.0 mm 0.00 in0.0 mm 0.00 in0.0 mm
12:14 AM 60.9°F16.1°C 51.4°F10.8°C 71% 6.1 mph SW9.8 kmh SW 9.3 mph15.0 kmh 29.86 in1011.2 mb 0.00 in0.0 mm 0.00 in0.0 mm 0.00 in0.0 mm
12:19 AM 60.7°F15.9°C 51.2°F10.7°C 71% 4.3 mph SW6.9 kmh SW 6.7 mph10.8 kmh 29.86 in1011.2 mb 0.00 in0.0 mm 0.00 in0.0 mm 0.00 in0.0 mm
12:24 AM 60.5°F15.8°C 51.0°F10.6°C 71% 4.2 mph SW6.8 kmh SW 5.5 mph8.9 kmh 29.86 in1011.2 mb 0.00 in0.0 mm 0.00 in0.0 mm 0.00 in0.0 mm
12:29 AM 60.2°F15.7°C 51.1°F10.6°C 72% 6.6 mph SW10.6 kmh SW 10.5 mph16.9 kmh 29.85 in1010.8 mb 0.00 in0.0 mm 0.00 in0.0 mm 0.00 in0.0 mm
12:34 AM 60.2°F15.7°C 51.1°F10.6°C 72% 4.5 mph SW7.2 kmh SW 7.5 mph12.1 kmh 29.86 in1011.2 mb 0.00 in0.0 mm 0.00 in0.0 mm 0.00 in0.0 mm
12:39 AM 60.0°F15.6°C 50.9°F10.5°C 72% 6.4 mph SW10.3 kmh SW 7.9 mph12.7 kmh 29.85 in1010.8 mb 0.00 in0.0 mm 0.00 in0.0 mm 0.00 in0.0 mm
12:44 AM 60.0°F15.6°C 51.3°F10.7°C 73% 4.5 mph SW7.2 kmh SW 7.7 mph12.4 kmh 29.85 in1010.8 mb 0.00 in0.0 mm 0.00 in0.0 mm 0.00 in0.0 mm
12:49 AM 59.9°F15.5°C 51.2°F10.7°C 73% 1.6 mph WSW2.6 kmh WSW 5.7 mph9.2 kmh 29.86 in1011.2 mb 0.00 in0.0 mm 0.00 in0.0 mm 0.00 in0.0 mm
12:54 AM 59.7°F15.4°C 51.0°F10.6°C 73% 4.2 mph SW6.8 kmh SW 7.7 mph12.4 kmh 29.85 in1010.8 mb 0.00 in0.0 mm 0.00 in0.0 mm 0.00 in0.0 mm
12:59 AM 59.7°F15.4°C 51.0°F10.6°C 73% 3.6 mph SW5.8 kmh SW 5.5 mph8.9 kmh 29.86 in1011.2 mb 0.00 in0.0 mm 0.00 in0.0 mm 0.00 in0.0 mm
01:04 AM 59.6°F15.3°C 50.9°F10.5°C 73% 6.8 mph SW10.9 kmh SW 10.3 mph16.6 kmh 29.85 in1010.8 mb 0.00 in0.0 mm 0.00 in0.0 mm 0.00 in0.0 mm
01:09 AM 59.7°F15.4°C 50.7°F10.4°C 72% 3.5 mph SW5.6 kmh SW 7.2 mph11.6 kmh 29.85 in1010.8 mb 0.00 in0.0 mm 0.00 in0.0 mm 0.00 in0.0 mm
01:14 AM 60.0°F15.6°C 50.9°F10.5°C 72% 4.0 mph SSW6.4 kmh SSW 5.0 mph8.0 kmh 29.85 in1010.8 mb 0.00 in0.0 mm 0.00 in0.0 mm 0.00 in0.0 mm
01:19 AM 59.9°F15.5°C 51.2°F10.7°C 73% 3.7 mph SW6.0 kmh SW 6.5 mph10.5 kmh 29.85 in1010.8 mb 0.00 in0.0 mm 0.00 in0.0 mm 0.00 in0.0 mm
01:24 AM 60.0°F15.6°C 51.3°F10.7°C 73% 2.6 mph SW4.2 kmh SW 4.9 mph7.9 kmh 29.85 in1010.8 mb 0.00 in0.0 mm 0.00 in0.0 mm 0.00 in0.0 mm
01:29 AM 60.1°F15.6°C 51.0°F10.6°C 72% 3.3 mph WSW5.3 kmh WSW 6.7 mph10.8 kmh 29.85 in1010.8 mb 0.00 in0.0 mm 0.00 in0.0 mm 0.00 in0.0 mm
01:34 AM 60.2°F15.7°C 51.1°F10.6°C 72% 3.5 mph W5.6 kmh W 6.5 mph10.5 kmh 29.85 in1010.8 mb 0.00 in0.0 mm 0.00 in0.0 mm 0.00 in0.0 mm
01:39 AM 60.3°F15.7°C 50.9°F10.5°C 71% 8.2 mph SW13.2 kmh SW 13.0 mph20.9 kmh 29.85 in1010.8 mb 0.00 in0.0 mm 0.00 in0.0 mm 0.00 in0.0 mm
01:44 AM 60.5°F15.8°C 51.4°F10.8°C 72% 10.4 mph SW16.7 kmh SW 14.9 mph24.0 kmh 29.85 in1010.8 mb 0.00 in0.0 mm 0.00 in0.0 mm 0.00 in0.0 mm
01:49 AM 60.5°F15.8°C 51.4°F10.8°C 72% 5.0 mph SW8.0 kmh SW 7.7 mph12.4 kmh 29.85 in1010.8 mb 0.00 in0.0 mm 0.00 in0.0 mm 0.00 in0.0 mm
01:54 AM 60.3°F15.7°C 51.2°F10.7°C 72% 5.7 mph SW9.2 kmh SW 13.0 mph20.9 kmh 29.85 in1010.8 mb 0.00 in0.0 mm 0.00 in0.0 mm 0.00 in0.0 mm
01:59 AM 60.1°F15.6°C 51.0°F10.6°C 72% 4.7 mph SW7.6 kmh SW 9.3 mph15.0 kmh 29.85 in1010.8 mb 0.00 in0.0 mm 0.00 in0.0 mm 0.00 in0.0 mm
02:04 AM 60.0°F15.6°C 51.3°F10.7°C 73% 5.7 mph SW9.2 kmh SW 13.0 mph20.9 kmh 29.85 in1010.8 mb 0.00 in0.0 mm 0.00 in0.0 mm 0.00 in0.0 mm
02:09 AM 59.8°F15.4°C 51.1°F10.6°C 73% 6.1 mph SW9.8 kmh SW 8.5 mph13.7 kmh 29.84 in1010.5 mb 0.00 in0.0 mm 0.00 in0.0 mm 0.00 in0.0 mm
02:14 AM 59.7°F15.4°C 51.0°F10.6°C 73% 6.1 mph SW9.8 kmh SW 9.8 mph15.8 kmh 29.85 in1010.8 mb 0.00 in0.0 mm 0.00 in0.0 mm 0.00 in0.0 mm
02:19 AM 59.5°F15.3°C 50.8°F10.4°C 73% 3.6 mph SW5.8 kmh SW 7.9 mph12.7 kmh 29.84 in1010.5 mb 0.00 in0.0 mm 0.00 in0.0 mm 0.00 in0.0 mm
02:24 AM 59.2°F15.1°C 50.9°F10.5°C 74% 3.5 mph WSW5.6 kmh WSW 8.9 mph14.3 kmh 29.85 in1010.8 mb 0.00 in0.0 mm 0.00 in0.0 mm 0.00 in0.0 mm
02:29 AM 59.1°F15.1°C 50.5°F10.3°C 73% 6.5 mph SW10.5 kmh SW 10.0 mph16.1 kmh 29.85 in1010.8 mb 0.00 in0.0 mm 0.00 in0.0 mm 0.00 in0.0 mm
02:34 AM 59.0°F15.0°C 51.1°F10.6°C 75% 4.7 mph SW7.6 kmh SW 7.9 mph12.7 kmh 29.85 in1010.8 mb 0.00 in0.0 mm 0.00 in0.0 mm 0.00 in0.0 mm
02:39 AM 59.0°F15.0°C 50.7°F10.4°C 74% 3.6 mph WSW5.8 kmh WSW 5.7 mph9.2 kmh 29.84 in1010.5 mb 0.00 in0.0 mm 0.00 in0.0 mm 0.00 in0.0 mm
02:44 AM 59.0°F15.0°C 51.1°F10.6°C 75% 3.3 mph WSW5.3 kmh WSW 6.0 mph9.7 kmh 29.84 in1010.5 mb 0.00 in0.0 mm 0.00 in0.0 mm 0.00 in0.0 mm
02:49 AM 59.0°F15.0°C 51.1°F10.6°C 75% 6.1 mph SW9.8 kmh SW 8.1 mph13.0 kmh 29.84 in1010.5 mb 0.00 in0.0 mm 0.00 in0.0 mm 0.00 in0.0 mm
02:54 AM 59.0°F15.0°C 50.7°F10.4°C 74% 4.3 mph SW6.9 kmh SW 7.2 mph11.6 kmh 29.84 in1010.5 mb 0.00 in0.0 mm 0.00 in0.0 mm 0.00 in0.0 mm
02:59 AM 59.0°F15.0°C 51.1°F10.6°C 75% 6.2 mph SW10.0 kmh SW 11.0 mph17.7 kmh 29.84 in1010.5 mb 0.00 in0.0 mm 0.00 in0.0 mm 0.00 in0.0 mm
03:04 AM 59.0°F15.0°C 51.4°F10.8°C 76% 5.7 mph SW9.2 kmh SW 10.5 mph16.9 kmh 29.84 in1010.5 mb 0.00 in0.0 mm 0.00 in0.0 mm 0.00 in0.0 mm
03:09 AM 59.0°F15.0°C 51.4°F10.8°C 76% 5.3 mph SW8.5 kmh SW 10.0 mph16.1 kmh 29.84 in1010.5 mb 0.00 in0.0 mm 0.00 in0.0 mm 0.00 in0.0 mm
03:14 AM 58.9°F14.9°C 51.3°F10.7°C 76% 3.9 mph SW6.3 kmh SW 6.5 mph10.5 kmh 29.84 in1010.5 mb 0.00 in0.0 mm 0.00 in0.0 mm 0.00 in0.0 mm
03:19 AM 58.8°F14.9°C 50.9°F10.5°C 75% 4.2 mph SW6.8 kmh SW 7.2 mph11.6 kmh 29.84 in1010.5 mb 0.00 in0.0 mm 0.00 in0.0 mm 0.00 in0.0 mm
03:24 AM 58.7°F14.8°C 51.2°F10.7°C 76% 5.1 mph SW8.2 kmh SW 9.8 mph15.8 kmh 29.84 in1010.5 mb 0.00 in0.0 mm 0.00 in0.0 mm 0.00 in0.0 mm
03:29 AM 58.6°F14.8°C 51.1°F10.6°C 76% 2.8 mph SW4.5 kmh SW 4.4 mph7.1 kmh 29.84 in1010.5 mb 0.00 in0.0 mm 0.00 in0.0 mm 0.00 in0.0 mm
03:34 AM 58.6°F14.8°C 51.1°F10.6°C 76% 2.0 mph WSW3.2 kmh WSW 4.2 mph6.8 kmh 29.84 in1010.5 mb 0.00 in0.0 mm 0.00 in0.0 mm 0.00 in0.0 mm
03:39 AM 58.6°F14.8°C 51.1°F10.6°C 76% 3.9 mph SW6.3 kmh SW 7.2 mph11.6 kmh 29.84 in1010.5 mb 0.00 in0.0 mm 0.00 in0.0 mm 0.00 in0.0 mm
03:44 AM 58.4°F14.7°C 50.5°F10.3°C 75% 2.5 mph WSW4.0 kmh WSW 5.7 mph9.2 kmh 29.84 in1010.5 mb 0.00 in0.0 mm 0.00 in0.0 mm 0.00 in0.0 mm
03:49 AM 58.4°F14.7°C 50.9°F10.5°C 76% 2.4 mph SW3.9 kmh SW 4.2 mph6.8 kmh 29.84 in1010.5 mb 0.00 in0.0 mm 0.00 in0.0 mm 0.00 in0.0 mm
03:54 AM 58.2°F14.6°C 51.0°F10.6°C 77% 4.4 mph SW7.1 kmh SW 7.2 mph11.6 kmh 29.84 in1010.5 mb 0.00 in0.0 mm 0.00 in0.0 mm 0.00 in0.0 mm
03:59 AM 58.2°F14.6°C 51.0°F10.6°C 77% 3.4 mph SW5.5 kmh SW 7.5 mph12.1 kmh 29.84 in1010.5 mb 0.00 in0.0 mm 0.00 in0.0 mm 0.00 in0.0 mm
04:04 AM 58.2°F14.6°C 51.0°F10.6°C 77% 3.1 mph SW5.0 kmh SW 5.5 mph8.9 kmh 29.84 in1010.5 mb 0.00 in0.0 mm 0.00 in0.0 mm 0.00 in0.0 mm
04:09 AM 58.2°F14.6°C 51.0°F10.6°C 77% 4.2 mph SW6.8 kmh SW 6.5 mph10.5 kmh 29.84 in1010.5 mb 0.00 in0.0 mm 0.00 in0.0 mm 0.00 in0.0 mm
04:14 AM 58.2°F14.6°C 51.0°F10.6°C 77% 4.6 mph SW7.4 kmh SW 6.5 mph10.5 kmh 29.84 in1010.5 mb 0.00 in0.0 mm 0.00 in0.0 mm 0.00 in0.0 mm
04:19 AM 58.2°F14.6°C 51.0°F10.6°C 77% 4.5 mph SW7.2 kmh SW 7.9 mph12.7 kmh 29.84 in1010.5 mb 0.00 in0.0 mm 0.00 in0.0 mm 0.00 in0.0 mm
04:24 AM 58.2°F14.6°C 51.0°F10.6°C 77% 4.0 mph SW6.4 kmh SW 7.5 mph12.1 kmh 29.84 in1010.5 mb 0.00 in0.0 mm 0.00 in0.0 mm 0.00 in0.0 mm
04:29 AM 58.2°F14.6°C 51.0°F10.6°C 77% 3.4 mph SW5.5 kmh SW 6.0 mph9.7 kmh 29.84 in1010.5 mb 0.00 in0.0 mm 0.00 in0.0 mm 0.00 in0.0 mm
04:34 AM 58.1°F14.5°C 50.9°F10.5°C 77% 3.5 mph SW5.6 kmh SW 10.0 mph16.1 kmh 29.84 in1010.5 mb 0.00 in0.0 mm 0.00 in0.0 mm 0.00 in0.0 mm
04:39 AM 58.1°F14.5°C 51.3°F10.7°C 78% 2.4 mph WSW3.9 kmh WSW 5.5 mph8.9 kmh 29.84 in1010.5 mb 0.00 in0.0 mm 0.00 in0.0 mm 0.00 in0.0 mm
04:44 AM 58.1°F14.5°C 51.3°F10.7°C 78% 1.9 mph SW3.1 kmh SW 3.2 mph5.1 kmh 29.84 in1010.5 mb 0.00 in0.0 mm 0.00 in0.0 mm 0.00 in0.0 mm
04:49 AM 58.0°F14.4°C 51.2°F10.7°C 78% 3.6 mph SW5.8 kmh SW 6.2 mph10.0 kmh 29.84 in1010.5 mb 0.00 in0.0 mm 0.00 in0.0 mm 0.00 in0.0 mm
04:54 AM 58.0°F14.4°C 50.8°F10.4°C 77% 3.1 mph WSW5.0 kmh WSW 5.5 mph8.9 kmh 29.84 in1010.5 mb 0.00 in0.0 mm 0.00 in0.0 mm 0.00 in0.0 mm
04:59 AM 58.0°F14.4°C 51.2°F10.7°C 78% 3.6 mph WSW5.8 kmh WSW 6.7 mph10.8 kmh 29.84 in1010.5 mb 0.00 in0.0 mm 0.00 in0.0 mm 0.00 in0.0 mm
05:04 AM 58.0°F14.4°C 51.2°F10.7°C 78% 2.3 mph WSW3.7 kmh WSW 4.9 mph7.9 kmh 29.84 in1010.5 mb 0.00 in0.0 mm 0.00 in0.0 mm 0.00 in0.0 mm
05:09 AM 58.0°F14.4°C 50.8°F10.4°C 77% 2.5 mph SW4.0 kmh SW 4.0 mph6.4 kmh 29.84 in1010.5 mb 0.00 in0.0 mm 0.00 in0.0 mm 0.00 in0.0 mm
05:14 AM 58.0°F14.4°C 51.2°F10.7°C 78% 2.9 mph SW4.7 kmh SW 4.4 mph7.1 kmh 29.84 in1010.5 mb 0.00 in0.0 mm 0.00 in0.0 mm 0.00 in0.0 mm
05:19 AM 58.1°F14.5°C 51.3°F10.7°C 78% 2.7 mph SW4.3 kmh SW 5.4 mph8.7 kmh 29.84 in1010.5 mb 0.00 in0.0 mm 0.00 in0.0 mm 0.00 in0.0 mm
05:24 AM 58.1°F14.5°C 50.9°F10.5°C 77% 2.9 mph SW4.7 kmh SW 4.4 mph7.1 kmh 29.84 in1010.5 mb 0.00 in0.0 mm 0.00 in0.0 mm 0.00 in0.0 mm
05:29 AM 58.1°F14.5°C 51.3°F10.7°C 78% 4.2 mph SW6.8 kmh SW 6.2 mph10.0 kmh 29.84 in1010.5 mb 0.00 in0.0 mm 0.00 in0.0 mm 0.00 in0.0 mm
05:34 AM 58.2°F14.6°C 51.4°F10.8°C 78% 4.8 mph SW7.7 kmh SW 8.5 mph13.7 kmh 29.84 in1010.5 mb 0.00 in0.0 mm 0.00 in0.0 mm 0.00 in0.0 mm
05:39 AM 58.2°F14.6°C 51.0°F10.6°C 77% 4.2 mph SW6.8 kmh SW 6.0 mph9.7 kmh 29.85 in1010.8 mb 0.00 in0.0 mm 0.00 in0.0 mm 0.00 in0.0 mm
05:44 AM 58.4°F14.7°C 51.6°F10.9°C 78% 3.6 mph SSW5.8 kmh SSW 4.7 mph7.6 kmh 29.85 in1010.8 mb 0.00 in0.0 mm 0.00 in0.0 mm 0.00 in0.0 mm
05:49 AM 58.5°F14.7°C 51.3°F10.7°C 77% 2.9 mph SSW4.7 kmh SSW 5.7 mph9.2 kmh 29.85 in1010.8 mb 0.00 in0.0 mm 0.00 in0.0 mm 0.00 in0.0 mm
05:54 AM 58.6°F14.8°C 51.8°F11.0°C 78% 2.2 mph SW3.5 kmh SW 4.2 mph6.8 kmh 29.85 in1010.8 mb 0.00 in0.0 mm 0.00 in0.0 mm 0.00 in0.0 mm
05:59 AM 58.7°F14.8°C 51.9°F11.1°C 78% 3.2 mph SW5.1 kmh SW 4.7 mph7.6 kmh 29.85 in1010.8 mb 0.00 in0.0 mm 0.00 in0.0 mm 0.00 in0.0 mm
06:04 AM 59.0°F15.0°C 52.1°F11.2°C 78% 1.6 mph SW2.6 kmh SW 3.7 mph6.0 kmh 29.85 in1010.8 mb 0.00 in0.0 mm 0.00 in0.0 mm 0.00 in0.0 mm
06:09 AM 59.4°F15.2°C 52.2°F11.2°C 77% 2.0 mph SW3.2 kmh SW 4.9 mph7.9 kmh 29.85 in1010.8 mb 0.00 in0.0 mm 0.00 in0.0 mm 0.00 in0.0 mm
06:14 AM 59.9°F15.5°C 52.3°F11.3°C 76% 1.1 mph WSW1.8 kmh WSW 2.6 mph4.2 kmh 29.85 in1010.8 mb 0.00 in0.0 mm 0.00 in0.0 mm 0.00 in0.0 mm
06:19 AM 60.4°F15.8°C 52.8°F11.6°C 76% 0.2 mph SW0.3 kmh SW 1.3 mph2.1 kmh 29.85 in1010.8 mb 0.00 in0.0 mm 0.00 in0.0 mm 0.00 in0.0 mm
06:24 AM 60.7°F15.9°C 53.4°F11.9°C 77% 3.1 mph SW5.0 kmh SW 4.7 mph7.6 kmh 29.85 in1010.8 mb 0.00 in0.0 mm 0.00 in0.0 mm 0.00 in0.0 mm
06:29 AM 60.9°F16.1°C 53.3°F11.8°C 76% 5.1 mph SW8.2 kmh SW 7.5 mph12.1 kmh 29.85 in1010.8 mb 0.00 in0.0 mm 0.00 in0.0 mm 0.00 in0.0 mm
06:34 AM 61.1°F16.2°C 53.5°F11.9°C 76% 2.1 mph SW3.4 kmh SW 4.2 mph6.8 kmh 29.85 in1010.8 mb 0.00 in0.0 mm 0.00 in0.0 mm 0.00 in0.0 mm
06:39 AM 61.2°F16.2°C 53.2°F11.8°C 75% 1.9 mph SW3.1 kmh SW 4.0 mph6.4 kmh 29.85 in1010.8 mb 0.00 in0.0 mm 0.00 in0.0 mm 0.00 in0.0 mm
06:44 AM 61.2°F16.2°C 52.8°F11.6°C 74% 3.7 mph SW6.0 kmh SW 6.0 mph9.7 kmh 29.85 in1010.8 mb 0.00 in0.0 mm 0.00 in0.0 mm 0.00 in0.0 mm
06:49 AM 61.2°F16.2°C 52.8°F11.6°C 74% 1.1 mph WSW1.8 kmh WSW 2.7 mph4.3 kmh 29.85 in1010.8 mb 0.00 in0.0 mm 0.00 in0.0 mm 0.00 in0.0 mm
06:54 AM 61.5°F16.4°C 53.1°F11.7°C 74% 2.8 mph SW4.5 kmh SW 6.7 mph10.8 kmh 29.85 in1010.8 mb 0.00 in0.0 mm 0.00 in0.0 mm 0.00 in0.0 mm
06:59 AM 62.0°F16.7°C 54.0°F12.2°C 75% 4.2 mph SW6.8 kmh SW 9.5 mph15.3 kmh 29.85 in1010.8 mb 0.00 in0.0 mm 0.00 in0.0 mm 0.00 in0.0 mm
07:04 AM 62.7°F17.1°C 54.7°F12.6°C 75% 2.4 mph SW3.9 kmh SW 5.5 mph8.9 kmh 29.85 in1010.8 mb 0.00 in0.0 mm 0.00 in0.0 mm 0.00 in0.0 mm
07:09 AM 63.3°F17.4°C 54.9°F12.7°C 74% 3.0 mph SW4.8 kmh SW 4.2 mph6.8 kmh 29.85 in1010.8 mb 0.00 in0.0 mm 0.00 in0.0 mm 0.00 in0.0 mm
07:14 AM 64.0°F17.8°C 55.2°F12.9°C 73% 0.3 mph WSW0.5 kmh WSW 2.6 mph4.2 kmh 29.85 in1010.8 mb 0.00 in0.0 mm 0.00 in0.0 mm 0.00 in0.0 mm
07:19 AM 64.6°F18.1°C 55.7°F13.2°C 73% 2.6 mph SSW4.2 kmh SSW 3.5 mph5.6 kmh 29.86 in1011.2 mb 0.00 in0.0 mm 0.00 in0.0 mm 0.00 in0.0 mm
07:24 AM 65.4°F18.6°C 55.7°F13.2°C 71% 1.1 mph SSE1.8 kmh SSE 2.7 mph4.3 kmh 29.85 in1010.8 mb 0.00 in0.0 mm 0.00 in0.0 mm 0.00 in0.0 mm
07:29 AM 65.5°F18.6°C 55.4°F13.0°C 70% 2.3 mph S3.7 kmh S 3.5 mph5.6 kmh 29.86 in1011.2 mb 0.00 in0.0 mm 0.00 in0.0 mm 0.00 in0.0 mm
07:34 AM 64.9°F18.3°C 54.1°F12.3°C 68% 3.9 mph SSE6.3 kmh SSE 4.7 mph7.6 kmh 29.85 in1010.8 mb 0.00 in0.0 mm 0.00 in0.0 mm 0.00 in0.0 mm
07:39 AM 65.0°F18.3°C 54.6°F12.6°C 69% 6.0 mph SSW9.7 kmh SSW 7.5 mph12.1 kmh 29.85 in1010.8 mb 0.00 in0.0 mm 0.00 in0.0 mm 0.00 in0.0 mm
07:44 AM 65.6°F18.7°C 55.1°F12.8°C 69% 4.2 mph S6.8 kmh S 8.1 mph13.0 kmh 29.85 in1010.8 mb 0.00 in0.0 mm 0.00 in0.0 mm 0.00 in0.0 mm
07:49 AM 65.9°F18.8°C 55.0°F12.8°C 68% 5.6 mph SSW9.0 kmh SSW 8.1 mph13.0 kmh 29.85 in1010.8 mb 0.00 in0.0 mm 0.00 in0.0 mm 0.00 in0.0 mm
07:54 AM 65.7°F18.7°C 54.8°F12.7°C 68% 6.7 mph SSW10.8 kmh SSW 8.9 mph14.3 kmh 29.85 in1010.8 mb 0.00 in0.0 mm 0.00 in0.0 mm 0.00 in0.0 mm
07:59 AM 65.9°F18.8°C 54.6°F12.6°C 67% 6.2 mph SSW10.0 kmh SSW 8.1 mph13.0 kmh 29.85 in1010.8 mb 0.00 in0.0 mm 0.00 in0.0 mm 0.00 in0.0 mm
08:04 AM 66.1°F18.9°C 54.8°F12.7°C 67% 6.2 mph SSW10.0 kmh SSW 7.9 mph12.7 kmh 29.86 in1011.2 mb 0.00 in0.0 mm 0.00 in0.0 mm 0.00 in0.0 mm
08:09 AM 66.6°F19.2°C 54.9°F12.7°C 66% 6.5 mph SSW10.5 kmh SSW 9.0 mph14.5 kmh 29.86 in1011.2 mb 0.00 in0.0 mm 0.00 in0.0 mm 0.00 in0.0 mm
08:14 AM 67.2°F19.6°C 55.0°F12.8°C 65% 4.8 mph SSW7.7 kmh SSW 7.0 mph11.3 kmh 29.86 in1011.2 mb 0.00 in0.0 mm 0.00 in0.0 mm 0.00 in0.0 mm
08:19 AM 67.6°F19.8°C 55.0°F12.8°C 64% 3.3 mph WSW5.3 kmh WSW 6.7 mph10.8 kmh 29.85 in1010.8 mb 0.00 in0.0 mm 0.00 in0.0 mm 0.00 in0.0 mm
08:24 AM 68.3°F20.2°C 55.6°F13.1°C 64% 4.1 mph SW6.6 kmh SW 8.4 mph13.5 kmh 29.86 in1011.2 mb 0.00 in0.0 mm 0.00 in0.0 mm 0.00 in0.0 mm
08:29 AM 68.8°F20.4°C 55.7°F13.2°C 63% 3.1 mph WSW5.0 kmh WSW 6.2 mph10.0 kmh 29.86 in1011.2 mb 0.00 in0.0 mm 0.00 in0.0 mm 0.00 in0.0 mm
08:34 AM 69.0°F20.6°C 55.4°F13.0°C 62% 5.5 mph SW8.9 kmh SW 9.0 mph14.5 kmh 29.86 in1011.2 mb 0.00 in0.0 mm 0.00 in0.0 mm 0.00 in0.0 mm
08:39 AM 69.2°F20.7°C 54.7°F12.6°C 60% 7.3 mph SW11.7 kmh SW 9.3 mph15.0 kmh 29.85 in1010.8 mb 0.00 in0.0 mm 0.00 in0.0 mm 0.00 in0.0 mm
08:44 AM 69.4°F20.8°C 55.4°F13.0°C 61% 4.8 mph SW7.7 kmh SW 6.7 mph10.8 kmh 29.85 in1010.8 mb 0.00 in0.0 mm 0.00 in0.0 mm 0.00 in0.0 mm
08:49 AM 69.2°F20.7°C 55.2°F12.9°C 61% 4.8 mph SW7.7 kmh SW 7.2 mph11.6 kmh 29.86 in1011.2 mb 0.00 in0.0 mm 0.00 in0.0 mm 0.00 in0.0 mm
08:54 AM 69.4°F20.8°C 54.9°F12.7°C 60% 6.0 mph SW9.7 kmh SW 8.9 mph14.3 kmh 29.86 in1011.2 mb 0.00 in0.0 mm 0.00 in0.0 mm 0.00 in0.0 mm
08:59 AM 69.7°F20.9°C 55.6°F13.1°C 61% 0.6 mph WSW1.0 kmh WSW 2.6 mph4.2 kmh 29.86 in1011.2 mb 0.00 in0.0 mm 0.00 in0.0 mm 0.00 in0.0 mm
09:04 AM 70.2°F21.2°C 55.2°F12.9°C 59% 3.8 mph SW6.1 kmh SW 6.2 mph10.0 kmh 29.85 in1010.8 mb 0.00 in0.0 mm 0.00 in0.0 mm 0.00 in0.0 mm
09:09 AM 70.9°F21.6°C 55.8°F13.2°C 59% 4.3 mph WSW6.9 kmh WSW 7.9 mph12.7 kmh 29.85 in1010.8 mb 0.00 in0.0 mm 0.00 in0.0 mm 0.00 in0.0 mm
09:14 AM 71.4°F21.9°C 56.3°F13.5°C 59% 2.7 mph WSW4.3 kmh WSW 4.2 mph6.8 kmh 29.85 in1010.8 mb 0.00 in0.0 mm 0.00 in0.0 mm 0.00 in0.0 mm
09:19 AM 72.0°F22.2°C 55.9°F13.3°C 57% 0.1 mph WSW0.2 kmh WSW 1.1 mph1.8 kmh 29.85 in1010.8 mb 0.00 in0.0 mm 0.00 in0.0 mm 0.00 in0.0 mm
09:24 AM 72.9°F22.7°C 56.8°F13.8°C 57% 0.8 mph WNW1.3 kmh WNW 3.7 mph6.0 kmh 29.85 in1010.8 mb 0.00 in0.0 mm 0.00 in0.0 mm 0.00 in0.0 mm
09:29 AM 74.1°F23.4°C 58.4°F14.7°C 58% 1.3 mph WSW2.1 kmh WSW 4.2 mph6.8 kmh 29.85 in1010.8 mb 0.00 in0.0 mm 0.00 in0.0 mm 0.00 in0.0 mm
09:34 AM 74.9°F23.8°C 58.6°F14.8°C 57% 1.6 mph WSW2.6 kmh WSW 5.5 mph8.9 kmh 29.84 in1010.5 mb 0.00 in0.0 mm 0.00 in0.0 mm 0.00 in0.0 mm
09:39 AM 75.3°F24.1°C 58.5°F14.7°C 56% 1.4 mph W2.3 kmh W 2.7 mph4.3 kmh 29.84 in1010.5 mb 0.00 in0.0 mm 0.00 in0.0 mm 0.00 in0.0 mm
09:44 AM 75.7°F24.3°C 58.9°F14.9°C 56% 5.1 mph SW8.2 kmh SW 8.9 mph14.3 kmh 29.84 in1010.5 mb 0.00 in0.0 mm 0.00 in0.0 mm 0.00 in0.0 mm
09:49 AM 75.7°F24.3°C 58.4°F14.7°C 55% 1.8 mph WNW2.9 kmh WNW 5.0 mph8.0 kmh 29.84 in1010.5 mb 0.00 in0.0 mm 0.00 in0.0 mm 0.00 in0.0 mm
09:54 AM 75.5°F24.2°C 57.7°F14.3°C 54% 1.2 mph WSW1.9 kmh WSW 4.2 mph6.8 kmh 29.84 in1010.5 mb 0.00 in0.0 mm 0.00 in0.0 mm 0.00 in0.0 mm
09:59 AM 76.1°F24.5°C 58.2°F14.6°C 54% 0.4 mph NNW0.6 kmh NNW 2.1 mph3.4 kmh 29.84 in1010.5 mb 0.00 in0.0 mm 0.00 in0.0 mm 0.00 in0.0 mm
10:04 AM 76.7°F24.8°C 57.7°F14.3°C 52% 1.5 mph WSW2.4 kmh WSW 4.4 mph7.1 kmh 29.84 in1010.5 mb 0.00 in0.0 mm 0.00 in0.0 mm 0.00 in0.0 mm
10:09 AM 77.2°F25.1°C 58.2°F14.6°C 52% 4.1 mph SW6.6 kmh SW 7.0 mph11.3 kmh 29.84 in1010.5 mb 0.00 in0.0 mm 0.00 in0.0 mm 0.00 in0.0 mm
10:14 AM 77.1°F25.1°C 58.1°F14.5°C 52% 4.7 mph SW7.6 kmh SW 10.0 mph16.1 kmh 29.83 in1010.2 mb 0.00 in0.0 mm 0.00 in0.0 mm 0.00 in0.0 mm
10:19 AM 76.5°F24.7°C 57.0°F13.9°C 51% 2.0 mph NW3.2 kmh NW 4.0 mph6.4 kmh 29.83 in1010.2 mb 0.00 in0.0 mm 0.00 in0.0 mm 0.00 in0.0 mm
10:24 AM 76.4°F24.7°C 56.4°F13.6°C 50% 3.2 mph SW5.1 kmh SW 7.5 mph12.1 kmh 29.83 in1010.2 mb 0.00 in0.0 mm 0.00 in0.0 mm 0.00 in0.0 mm
10:29 AM 76.7°F24.8°C 57.2°F14.0°C 51% 3.3 mph WSW5.3 kmh WSW 7.7 mph12.4 kmh 29.83 in1010.2 mb 0.00 in0.0 mm 0.00 in0.0 mm 0.00 in0.0 mm
10:34 AM 76.7°F24.8°C 56.6°F13.7°C 50% 3.5 mph WSW5.6 kmh WSW 7.7 mph12.4 kmh 29.83 in1010.2 mb 0.00 in0.0 mm 0.00 in0.0 mm 0.00 in0.0 mm
10:39 AM 76.9°F24.9°C 57.4°F14.1°C 51% 6.1 mph SSW9.8 kmh SSW 8.9 mph14.3 kmh 29.83 in1010.2 mb 0.00 in0.0 mm 0.00 in0.0 mm 0.00 in0.0 mm
10:44 AM 76.3°F24.6°C 57.4°F14.1°C 52% 9.0 mph SSW14.5 kmh SSW 12.4 mph20.0 kmh 29.83 in1010.2 mb 0.00 in0.0 mm 0.00 in0.0 mm 0.00 in0.0 mm
10:49 AM 75.4°F24.1°C 56.5°F13.6°C 52% 6.5 mph SSW10.5 kmh SSW 8.5 mph13.7 kmh 29.83 in1010.2 mb 0.00 in0.0 mm 0.00 in0.0 mm 0.00 in0.0 mm
10:54 AM 74.9°F23.8°C 56.6°F13.7°C 53% 8.1 mph SSW13.0 kmh SSW 10.6 mph17.1 kmh 29.83 in1010.2 mb 0.00 in0.0 mm 0.00 in0.0 mm 0.00 in0.0 mm
10:59 AM 74.9°F23.8°C 57.1°F13.9°C 54% 6.9 mph SW11.1 kmh SW 8.5 mph13.7 kmh 29.83 in1010.2 mb 0.00 in0.0 mm 0.00 in0.0 mm 0.00 in0.0 mm
11:04 AM 74.9°F23.8°C 57.1°F13.9°C 54% 4.0 mph WSW6.4 kmh WSW 5.7 mph9.2 kmh 29.83 in1010.2 mb 0.00 in0.0 mm 0.00 in0.0 mm 0.00 in0.0 mm
11:09 AM 75.0°F23.9°C 57.2°F14.0°C 54% 5.3 mph SW8.5 kmh SW 7.7 mph12.4 kmh 29.83 in1010.2 mb 0.00 in0.0 mm 0.00 in0.0 mm 0.00 in0.0 mm
11:14 AM 75.2°F24.0°C 57.4°F14.1°C 54% 8.7 mph SW14.0 kmh SW 12.5 mph20.1 kmh 29.83 in1010.2 mb 0.00 in0.0 mm 0.00 in0.0 mm 0.00 in0.0 mm
11:19 AM 75.0°F23.9°C 57.2°F14.0°C 54% 9.4 mph SSW15.1 kmh SSW 12.0 mph19.3 kmh 29.83 in1010.2 mb 0.00 in0.0 mm 0.00 in0.0 mm 0.00 in0.0 mm
11:24 AM 74.7°F23.7°C 56.9°F13.8°C 54% 7.5 mph SW12.1 kmh SW 10.6 mph17.1 kmh 29.83 in1010.2 mb 0.00 in0.0 mm 0.00 in0.0 mm 0.00 in0.0 mm
11:29 AM 74.9°F23.8°C 57.1°F13.9°C 54% 6.1 mph SW9.8 kmh SW 11.1 mph17.9 kmh 29.83 in1010.2 mb 0.00 in0.0 mm 0.00 in0.0 mm 0.00 in0.0 mm
11:34 AM 74.9°F23.8°C 56.6°F13.7°C 53% 8.9 mph SSW14.3 kmh SSW 11.4 mph18.3 kmh 29.83 in1010.2 mb 0.00 in0.0 mm 0.00 in0.0 mm 0.00 in0.0 mm
11:39 AM 74.9°F23.8°C 57.1°F13.9°C 54% 7.8 mph SSW12.6 kmh SSW 10.6 mph17.1 kmh 29.82 in1009.8 mb 0.00 in0.0 mm 0.00 in0.0 mm 0.00 in0.0 mm
11:44 AM 75.0°F23.9°C 56.7°F13.7°C 53% 7.3 mph SSW11.7 kmh SSW 12.4 mph20.0 kmh 29.82 in1009.8 mb 0.00 in0.0 mm 0.00 in0.0 mm 0.00 in0.0 mm
11:49 AM 75.2°F24.0°C 56.9°F13.8°C 53% 8.1 mph SW13.0 kmh SW 12.4 mph20.0 kmh 29.82 in1009.8 mb 0.00 in0.0 mm 0.00 in0.0 mm 0.00 in0.0 mm
11:54 AM 75.3°F24.1°C 57.0°F13.9°C 53% 6.5 mph SW10.5 kmh SW 11.1 mph17.9 kmh 29.83 in1010.2 mb 0.00 in0.0 mm 0.00 in0.0 mm 0.00 in0.0 mm
11:59 AM 75.7°F24.3°C 57.3°F14.1°C 53% 8.8 mph SW14.2 kmh SW 12.0 mph19.3 kmh 29.83 in1010.2 mb 0.00 in0.0 mm 0.00 in0.0 mm 0.00 in0.0 mm
12:04 PM 75.8°F24.3°C 57.4°F14.1°C 53% 7.2 mph SW11.6 kmh SW 10.0 mph16.1 kmh 29.83 in1010.2 mb 0.00 in0.0 mm 0.00 in0.0 mm 0.00 in0.0 mm
12:09 PM 75.5°F24.2°C 57.2°F14.0°C 53% 7.9 mph SSW12.7 kmh SSW 9.8 mph15.8 kmh 29.83 in1010.2 mb 0.00 in0.0 mm 0.00 in0.0 mm 0.00 in0.0 mm
12:14 PM 75.5°F24.2°C 57.2°F14.0°C 53% 7.3 mph SSW11.7 kmh SSW 10.6 mph17.1 kmh 29.82 in1009.8 mb 0.00 in0.0 mm 0.00 in0.0 mm 0.00 in0.0 mm
12:19 PM 75.8°F24.3°C 56.9°F13.8°C 52% 8.0 mph SW12.9 kmh SW 10.5 mph16.9 kmh 29.82 in1009.8 mb 0.00 in0.0 mm 0.00 in0.0 mm 0.00 in0.0 mm
12:24 PM 76.2°F24.6°C 57.3°F14.1°C 52% 3.5 mph WSW5.6 kmh WSW 8.5 mph13.7 kmh 29.82 in1009.8 mb 0.00 in0.0 mm 0.00 in0.0 mm 0.00 in0.0 mm
12:29 PM 76.5°F24.7°C 57.0°F13.9°C 51% 8.3 mph SW13.4 kmh SW 11.0 mph17.7 kmh 29.82 in1009.8 mb 0.00 in0.0 mm 0.00 in0.0 mm 0.00 in0.0 mm
12:34 PM 76.4°F24.7°C 56.9°F13.8°C 51% 9.3 mph SW15.0 kmh SW 13.3 mph21.4 kmh 29.82 in1009.8 mb 0.00 in0.0 mm 0.00 in0.0 mm 0.00 in0.0 mm
12:39 PM 76.4°F24.7°C 56.9°F13.8°C 51% 9.8 mph SW15.8 kmh SW 13.8 mph22.2 kmh 29.82 in1009.8 mb 0.00 in0.0 mm 0.00 in0.0 mm 0.00 in0.0 mm
12:44 PM 76.4°F24.7°C 56.4°F13.6°C 50% 4.9 mph WSW7.9 kmh WSW 8.9 mph14.3 kmh 29.82 in1009.8 mb 0.00 in0.0 mm 0.00 in0.0 mm 0.00 in0.0 mm
12:49 PM 76.3°F24.6°C 56.8°F13.8°C 51% 5.2 mph SW8.4 kmh SW 7.0 mph11.3 kmh 29.81 in1009.5 mb 0.00 in0.0 mm 0.00 in0.0 mm 0.00 in0.0 mm
12:54 PM 76.7°F24.8°C 56.6°F13.7°C 50% 8.2 mph SSW13.2 kmh SSW 12.0 mph19.3 kmh 29.82 in1009.8 mb 0.00 in0.0 mm 0.00 in0.0 mm 0.00 in0.0 mm
12:59 PM 76.9°F24.9°C 56.8°F13.8°C 50% 9.0 mph SSW14.5 kmh SSW 11.6 mph18.7 kmh 29.81 in1009.5 mb 0.00 in0.0 mm 0.00 in0.0 mm 0.00 in0.0 mm
01:04 PM 76.3°F24.6°C 56.8°F13.8°C 51% 7.2 mph SW11.6 kmh SW 12.8 mph20.6 kmh 29.82 in1009.8 mb 0.00 in0.0 mm 0.00 in0.0 mm 0.00 in0.0 mm
01:09 PM 75.7°F24.3°C 55.7°F13.2°C 50% 6.4 mph WSW10.3 kmh WSW 10.5 mph16.9 kmh 29.81 in1009.5 mb 0.00 in0.0 mm 0.00 in0.0 mm 0.00 in0.0 mm
01:14 PM 75.2°F24.0°C 56.3°F13.5°C 52% 9.8 mph SW15.8 kmh SW 14.5 mph23.3 kmh 29.82 in1009.8 mb 0.00 in0.0 mm 0.00 in0.0 mm 0.00 in0.0 mm
01:19 PM 74.6°F23.7°C 55.8°F13.2°C 52% 9.0 mph SW14.5 kmh SW 11.9 mph19.2 kmh 29.81 in1009.5 mb 0.00 in0.0 mm 0.00 in0.0 mm 0.00 in0.0 mm
01:24 PM 74.0°F23.3°C 55.2°F12.9°C 52% 8.4 mph SSW13.5 kmh SSW 13.3 mph21.4 kmh 29.81 in1009.5 mb 0.00 in0.0 mm 0.00 in0.0 mm 0.00 in0.0 mm
01:29 PM 73.9°F23.3°C 55.2°F12.9°C 52% 7.5 mph SW12.1 kmh SW 12.5 mph20.1 kmh 29.81 in1009.5 mb 0.00 in0.0 mm 0.00 in0.0 mm 0.00 in0.0 mm
01:34 PM 74.0°F23.3°C 55.2°F12.9°C 52% 8.9 mph SSW14.3 kmh SSW 12.0 mph19.3 kmh 29.81 in1009.5 mb 0.00 in0.0 mm 0.00 in0.0 mm 0.00 in0.0 mm
01:39 PM 73.7°F23.2°C 55.0°F12.8°C 52% 6.1 mph SW9.8 kmh SW 8.4 mph13.5 kmh 29.81 in1009.5 mb 0.00 in0.0 mm 0.00 in0.0 mm 0.00 in0.0 mm
01:44 PM 73.7°F23.2°C 55.5°F13.1°C 53% 6.9 mph SW11.1 kmh SW 11.6 mph18.7 kmh 29.81 in1009.5 mb 0.00 in0.0 mm 0.00 in0.0 mm 0.00 in0.0 mm
01:49 PM 73.7°F23.2°C 55.5°F13.1°C 53% 11.3 mph SSW18.2 kmh SSW 17.6 mph28.3 kmh 29.80 in1009.1 mb 0.00 in0.0 mm 0.00 in0.0 mm 0.00 in0.0 mm
01:53 PM 73.4°F23.0°C 54.7°F12.6°C 52% 7.2 mph SW11.6 kmh SW 10.6 mph17.1 kmh 29.80 in1009.1 mb 0.00 in0.0 mm 0.00 in0.0 mm 0.00 in0.0 mm
01:59 PM 72.6°F22.6°C 54.5°F12.5°C 53% 10.4 mph SW16.7 kmh SW 13.5 mph21.7 kmh 29.80 in1009.1 mb 0.00 in0.0 mm 0.00 in0.0 mm 0.00 in0.0 mm
02:04 PM 72.4°F22.4°C 54.3°F12.4°C 53% 8.3 mph SW13.4 kmh SW 13.8 mph22.2 kmh 29.80 in1009.1 mb 0.00 in0.0 mm 0.00 in0.0 mm 0.00 in0.0 mm
02:09 PM 72.2°F22.3°C 54.1°F12.3°C 53% 12.7 mph SSW20.4 kmh SSW 21.6 mph34.8 kmh 29.80 in1009.1 mb 0.00 in0.0 mm 0.00 in0.0 mm 0.00 in0.0 mm
02:14 PM 72.0°F22.2°C 54.4°F12.4°C 54% 10.5 mph SSW16.9 kmh SSW 15.9 mph25.6 kmh 29.80 in1009.1 mb 0.00 in0.0 mm 0.00 in0.0 mm 0.00 in0.0 mm
02:19 PM 71.9°F22.2°C 54.8°F12.7°C 55% 15.1 mph SSW24.3 kmh SSW 18.6 mph29.9 kmh 29.80 in1009.1 mb 0.00 in0.0 mm 0.00 in0.0 mm 0.00 in0.0 mm
02:24 PM 71.7°F22.1°C 54.7°F12.6°C 55% 10.8 mph SSW17.4 kmh SSW 13.8 mph22.2 kmh 29.80 in1009.1 mb 0.00 in0.0 mm 0.00 in0.0 mm 0.00 in0.0 mm
02:29 PM 71.5°F21.9°C 55.0°F12.8°C 56% 9.2 mph SW14.8 kmh SW 13.5 mph21.7 kmh 29.80 in1009.1 mb 0.00 in0.0 mm 0.00 in0.0 mm 0.00 in0.0 mm
02:34 PM 71.5°F21.9°C 54.5°F12.5°C 55% 8.0 mph SW12.9 kmh SW 11.6 mph18.7 kmh 29.80 in1009.1 mb 0.00 in0.0 mm 0.00 in0.0 mm 0.00 in0.0 mm
02:39 PM 71.7°F22.1°C 54.7°F12.6°C 55% 5.8 mph SW9.3 kmh SW 10.5 mph16.9 kmh 29.80 in1009.1 mb 0.00 in0.0 mm 0.00 in0.0 mm 0.00 in0.0 mm
02:44 PM 71.7°F22.1°C 55.6°F13.1°C 57% 8.9 mph SW14.3 kmh SW 14.5 mph23.3 kmh 29.79 in1008.8 mb 0.00 in0.0 mm 0.00 in0.0 mm 0.00 in0.0 mm
02:49 PM 71.1°F21.7°C 54.6°F12.6°C 56% 7.9 mph SW12.7 kmh SW 13.5 mph21.7 kmh 29.79 in1008.8 mb 0.00 in0.0 mm 0.00 in0.0 mm 0.00 in0.0 mm
02:54 PM 70.7°F21.5°C 54.2°F12.3°C 56% 7.8 mph SW12.6 kmh SW 11.0 mph17.7 kmh 29.79 in1008.8 mb 0.00 in0.0 mm 0.00 in0.0 mm 0.00 in0.0 mm
02:59 PM 70.7°F21.5°C 54.7°F12.6°C 57% 7.2 mph SSW11.6 kmh SSW 11.0 mph17.7 kmh 29.78 in1008.5 mb 0.00 in0.0 mm 0.00 in0.0 mm 0.00 in0.0 mm
03:04 PM 71.1°F21.7°C 55.1°F12.8°C 57% 8.1 mph SW13.0 kmh SW 15.9 mph25.6 kmh 29.78 in1008.5 mb 0.00 in0.0 mm 0.00 in0.0 mm 0.00 in0.0 mm
03:09 PM 71.2°F21.8°C 55.7°F13.2°C 58% 6.8 mph SW10.9 kmh SW 14.5 mph23.3 kmh 29.78 in1008.5 mb 0.00 in0.0 mm 0.00 in0.0 mm 0.00 in0.0 mm
03:14 PM 71.0°F21.7°C 55.5°F13.1°C 58% 7.9 mph SW12.7 kmh SW 10.5 mph16.9 kmh 29.78 in1008.5 mb 0.00 in0.0 mm 0.00 in0.0 mm 0.00 in0.0 mm
03:19 PM 70.9°F21.6°C 55.4°F13.0°C 58% 8.3 mph SW13.4 kmh SW 10.3 mph16.6 kmh 29.78 in1008.5 mb 0.00 in0.0 mm 0.00 in0.0 mm 0.00 in0.0 mm
03:24 PM 70.7°F21.5°C 55.7°F13.2°C 59% 9.7 mph SSW15.6 kmh SSW 14.6 mph23.5 kmh 29.78 in1008.5 mb 0.00 in0.0 mm 0.00 in0.0 mm 0.00 in0.0 mm
03:29 PM 70.5°F21.4°C 55.5°F13.1°C 59% 10.5 mph SSW16.9 kmh SSW 13.8 mph22.2 kmh 29.78 in1008.5 mb 0.00 in0.0 mm 0.00 in0.0 mm 0.00 in0.0 mm
03:34 PM 70.2°F21.2°C 55.7°F13.2°C 60% 10.9 mph SSW17.5 kmh SSW 16.3 mph26.2 kmh 29.78 in1008.5 mb 0.00 in0.0 mm 0.00 in0.0 mm 0.00 in0.0 mm
03:39 PM 69.7°F20.9°C 56.1°F13.4°C 62% 8.7 mph SSW14.0 kmh SSW 13.5 mph21.7 kmh 29.78 in1008.5 mb 0.00 in0.0 mm 0.00 in0.0 mm 0.00 in0.0 mm
03:44 PM 69.5°F20.8°C 56.3°F13.5°C 63% 8.3 mph SSW13.4 kmh SSW 10.5 mph16.9 kmh 29.78 in1008.5 mb 0.00 in0.0 mm 0.00 in0.0 mm 0.00 in0.0 mm
03:49 PM 69.5°F20.8°C 56.8°F13.8°C 64% 9.1 mph SSW14.6 kmh SSW 12.5 mph20.1 kmh 29.77 in1008.1 mb 0.00 in0.0 mm 0.00 in0.0 mm 0.00 in0.0 mm
03:54 PM 69.5°F20.8°C 56.8°F13.8°C 64% 8.4 mph SW13.5 kmh SW 10.6 mph17.1 kmh 29.77 in1008.1 mb 0.00 in0.0 mm 0.00 in0.0 mm 0.00 in0.0 mm
03:59 PM 69.7°F20.9°C 57.0°F13.9°C 64% 7.3 mph SW11.7 kmh SW 9.8 mph15.8 kmh 29.77 in1008.1 mb 0.00 in0.0 mm 0.00 in0.0 mm 0.00 in0.0 mm
04:04 PM 69.8°F21.0°C 57.5°F14.2°C 65% 7.6 mph SSW12.2 kmh SSW 9.8 mph15.8 kmh 29.77 in1008.1 mb 0.00 in0.0 mm 0.00 in0.0 mm 0.00 in0.0 mm
04:09 PM 69.7°F20.9°C 57.4°F14.1°C 65% 7.7 mph SSW12.4 kmh SSW 10.3 mph16.6 kmh 29.77 in1008.1 mb 0.00 in0.0 mm 0.00 in0.0 mm 0.00 in0.0 mm
04:14 PM 69.2°F20.7°C 56.9°F13.8°C 65% 7.0 mph SW11.3 kmh SW 10.0 mph16.1 kmh 29.77 in1008.1 mb 0.00 in0.0 mm 0.00 in0.0 mm 0.00 in0.0 mm
04:19 PM 68.9°F20.5°C 57.1°F13.9°C 66% 4.6 mph SW7.4 kmh SW 8.9 mph14.3 kmh 29.77 in1008.1 mb 0.00 in0.0 mm 0.00 in0.0 mm 0.00 in0.0 mm
04:24 PM 69.0°F20.6°C 58.0°F14.4°C 68% 4.2 mph SW6.8 kmh SW 7.7 mph12.4 kmh 29.77 in1008.1 mb 0.00 in0.0 mm 0.00 in0.0 mm 0.00 in0.0 mm
04:29 PM 69.2°F20.7°C 57.8°F14.3°C 67% 5.8 mph SW9.3 kmh SW 9.5 mph15.3 kmh 29.77 in1008.1 mb 0.00 in0.0 mm 0.00 in0.0 mm 0.00 in0.0 mm
04:34 PM 68.9°F20.5°C 57.9°F14.4°C 68% 7.5 mph SW12.1 kmh SW 13.3 mph21.4 kmh 29.77 in1008.1 mb 0.00 in0.0 mm 0.00 in0.0 mm 0.00 in0.0 mm
04:39 PM 68.4°F20.2°C 58.2°F14.6°C 70% 5.7 mph SW9.2 kmh SW 9.5 mph15.3 kmh 29.77 in1008.1 mb 0.00 in0.0 mm 0.00 in0.0 mm 0.00 in0.0 mm
04:44 PM 68.0°F20.0°C 57.8°F14.3°C 70% 5.4 mph SW8.7 kmh SW 8.1 mph13.0 kmh 29.77 in1008.1 mb 0.00 in0.0 mm 0.00 in0.0 mm 0.00 in0.0 mm
04:49 PM 67.7°F19.8°C 58.3°F14.6°C 72% 5.4 mph SSW8.7 kmh SSW 8.4 mph13.5 kmh 29.77 in1008.1 mb 0.00 in0.0 mm 0.00 in0.0 mm 0.00 in0.0 mm
04:54 PM 67.5°F19.7°C 58.5°F14.7°C 73% 10.1 mph SSW16.3 kmh SSW 14.6 mph23.5 kmh 29.77 in1008.1 mb 0.00 in0.0 mm 0.00 in0.0 mm 0.00 in0.0 mm
04:59 PM 66.9°F19.4°C 58.3°F14.6°C 74% 8.0 mph SSW12.9 kmh SSW 11.4 mph18.3 kmh 29.77 in1008.1 mb 0.00 in0.0 mm 0.00 in0.0 mm 0.00 in0.0 mm
05:04 PM 66.2°F19.0°C 57.7°F14.3°C 74% 8.6 mph SSW13.8 kmh SSW 11.9 mph19.2 kmh 29.77 in1008.1 mb 0.00 in0.0 mm 0.00 in0.0 mm 0.00 in0.0 mm
05:09 PM 65.8°F18.8°C 58.0°F14.4°C 76% 7.8 mph SSW12.6 kmh SSW 9.5 mph15.3 kmh 29.76 in1007.8 mb 0.00 in0.0 mm 0.00 in0.0 mm 0.00 in0.0 mm
05:14 PM 65.4°F18.6°C 58.0°F14.4°C 77% 6.7 mph SSW10.8 kmh SSW 8.4 mph13.5 kmh 29.76 in1007.8 mb 0.00 in0.0 mm 0.00 in0.0 mm 0.00 in0.0 mm
05:19 PM 65.2°F18.4°C 58.2°F14.6°C 78% 6.0 mph SW9.7 kmh SW 9.0 mph14.5 kmh 29.76 in1007.8 mb 0.00 in0.0 mm 0.00 in0.0 mm 0.00 in0.0 mm
05:24 PM 65.1°F18.4°C 58.1°F14.5°C 78% 7.1 mph SW11.4 kmh SW 10.3 mph16.6 kmh 29.76 in1007.8 mb 0.00 in0.0 mm 0.00 in0.0 mm 0.00 in0.0 mm
05:29 PM 65.0°F18.3°C 58.7°F14.8°C 80% 9.0 mph SSW14.5 kmh SSW 12.4 mph20.0 kmh 29.76 in1007.8 mb 0.00 in0.0 mm 0.00 in0.0 mm 0.00 in0.0 mm
05:34 PM 64.7°F18.2°C 58.4°F14.7°C 80% 9.5 mph SSW15.3 kmh SSW 13.0 mph20.9 kmh 29.76 in1007.8 mb 0.00 in0.0 mm 0.00 in0.0 mm 0.00 in0.0 mm
05:39 PM 64.3°F17.9°C 58.3°F14.6°C 81% 7.9 mph SW12.7 kmh SW 11.1 mph17.9 kmh 29.76 in1007.8 mb 0.00 in0.0 mm 0.00 in0.0 mm 0.00 in0.0 mm
05:44 PM 64.1°F17.8°C 58.1°F14.5°C 81% 6.0 mph SW9.7 kmh SW 8.9 mph14.3 kmh 29.76 in1007.8 mb 0.00 in0.0 mm 0.00 in0.0 mm 0.00 in0.0 mm
05:49 PM 63.9°F17.7°C 58.3°F14.6°C 82% 6.0 mph SW9.7 kmh SW 9.5 mph15.3 kmh 29.76 in1007.8 mb 0.00 in0.0 mm 0.00 in0.0 mm 0.00 in0.0 mm
05:54 PM 63.7°F17.6°C 58.1°F14.5°C 82% 5.6 mph SW9.0 kmh SW 8.9 mph14.3 kmh 29.76 in1007.8 mb 0.00 in0.0 mm 0.00 in0.0 mm 0.00 in0.0 mm
05:59 PM 63.7°F17.6°C 58.4°F14.7°C 83% 5.8 mph SW9.3 kmh SW 9.3 mph15.0 kmh 29.76 in1007.8 mb 0.00 in0.0 mm 0.00 in0.0 mm 0.00 in0.0 mm
06:04 PM 63.7°F17.6°C 58.4°F14.7°C 83% 5.3 mph WSW8.5 kmh WSW 10.0 mph16.1 kmh 29.76 in1007.8 mb 0.00 in0.0 mm 0.00 in0.0 mm 0.00 in0.0 mm
06:09 PM 63.6°F17.6°C 58.7°F14.8°C 84% 6.6 mph SSW10.6 kmh SSW 9.5 mph15.3 kmh 29.76 in1007.8 mb 0.00 in0.0 mm 0.00 in0.0 mm 0.00 in0.0 mm
06:14 PM 63.5°F17.5°C 58.9°F14.9°C 85% 7.3 mph SSW11.7 kmh SSW 11.6 mph18.7 kmh 29.76 in1007.8 mb 0.00 in0.0 mm 0.00 in0.0 mm 0.00 in0.0 mm
06:19 PM 63.4°F17.4°C 58.8°F14.9°C 85% 7.3 mph SW11.7 kmh SW 10.0 mph16.1 kmh 29.75 in1007.5 mb 0.00 in0.0 mm 0.00 in0.0 mm 0.00 in0.0 mm
06:24 PM 63.2°F17.3°C 58.3°F14.6°C 84% 5.9 mph SW9.5 kmh SW 8.9 mph14.3 kmh 29.75 in1007.5 mb 0.00 in0.0 mm 0.00 in0.0 mm 0.00 in0.0 mm
06:29 PM 63.2°F17.3°C 58.3°F14.6°C 84% 6.6 mph SW10.6 kmh SW 10.5 mph16.9 kmh 29.75 in1007.5 mb 0.00 in0.0 mm 0.00 in0.0 mm 0.00 in0.0 mm
06:34 PM 63.2°F17.3°C 58.3°F14.6°C 84% 9.5 mph SW15.3 kmh SW 12.8 mph20.6 kmh 29.75 in1007.5 mb 0.00 in0.0 mm 0.00 in0.0 mm 0.00 in0.0 mm
06:39 PM 63.2°F17.3°C 58.6°F14.8°C 85% 6.9 mph SSW11.1 kmh SSW 9.5 mph15.3 kmh 29.74 in1007.1 mb 0.00 in0.0 mm 0.00 in0.0 mm 0.00 in0.0 mm
06:44 PM 62.9°F17.2°C 58.3°F14.6°C 85% 7.9 mph SSW12.7 kmh SSW 10.6 mph17.1 kmh 29.74 in1007.1 mb 0.00 in0.0 mm 0.00 in0.0 mm 0.00 in0.0 mm
06:49 PM 62.7°F17.1°C 58.1°F14.5°C 85% 5.3 mph SW8.5 kmh SW 9.0 mph14.5 kmh 29.74 in1007.1 mb 0.00 in0.0 mm 0.00 in0.0 mm 0.00 in0.0 mm
06:54 PM 62.6°F17.0°C 58.0°F14.4°C 85% 5.6 mph SSW9.0 kmh SSW 6.7 mph10.8 kmh 29.74 in1007.1 mb 0.00 in0.0 mm 0.00 in0.0 mm 0.00 in0.0 mm
06:59 PM 62.3°F16.8°C 57.7°F14.3°C 85% 6.4 mph SW10.3 kmh SW 8.5 mph13.7 kmh 29.73 in1006.8 mb 0.00 in0.0 mm 0.00 in0.0 mm 0.00 in0.0 mm
07:04 PM 62.2°F16.8°C 57.6°F14.2°C 85% 6.2 mph SSW10.0 kmh SSW 8.9 mph14.3 kmh 29.73 in1006.8 mb 0.00 in0.0 mm 0.00 in0.0 mm 0.00 in0.0 mm
07:09 PM 62.5°F16.9°C 57.9°F14.4°C 85% 6.8 mph SSW10.9 kmh SSW 9.5 mph15.3 kmh 29.73 in1006.8 mb 0.00 in0.0 mm 0.00 in0.0 mm 0.00 in0.0 mm
07:14 PM 62.4°F16.9°C 58.2°F14.6°C 86% 6.6 mph SSW10.6 kmh SSW 9.0 mph14.5 kmh 29.73 in1006.8 mb 0.00 in0.0 mm 0.00 in0.0 mm 0.00 in0.0 mm
07:19 PM 62.2°F16.8°C 58.0°F14.4°C 86% 8.8 mph SSW14.2 kmh SSW 11.1 mph17.9 kmh 29.73 in1006.8 mb 0.00 in0.0 mm 0.00 in0.0 mm 0.00 in0.0 mm
07:24 PM 61.9°F16.6°C 57.3°F14.1°C 85% 5.4 mph SSW8.7 kmh SSW 7.2 mph11.6 kmh 29.73 in1006.8 mb 0.00 in0.0 mm 0.00 in0.0 mm 0.00 in0.0 mm
07:29 PM 61.8°F16.6°C 57.6°F14.2°C 86% 5.7 mph SW9.2 kmh SW 7.9 mph12.7 kmh 29.72 in1006.4 mb 0.00 in0.0 mm 0.00 in0.0 mm 0.00 in0.0 mm
07:34 PM 61.7°F16.5°C 57.5°F14.2°C 86% 6.6 mph SW10.6 kmh SW 10.3 mph16.6 kmh 29.72 in1006.4 mb 0.00 in0.0 mm 0.00 in0.0 mm 0.00 in0.0 mm
07:39 PM 61.7°F16.5°C 57.5°F14.2°C 86% 2.6 mph SW4.2 kmh SW 4.9 mph7.9 kmh 29.72 in1006.4 mb 0.00 in0.0 mm 0.00 in0.0 mm 0.00 in0.0 mm
07:44 PM 61.6°F16.4°C 57.4°F14.1°C 86% 5.0 mph SW8.0 kmh SW 7.5 mph12.1 kmh 29.72 in1006.4 mb 0.00 in0.0 mm 0.00 in0.0 mm 0.00 in0.0 mm
07:49 PM 61.5°F16.4°C 57.6°F14.2°C 87% 5.3 mph SSW8.5 kmh SSW 7.5 mph12.1 kmh 29.72 in1006.4 mb 0.00 in0.0 mm 0.00 in0.0 mm 0.00 in0.0 mm
07:54 PM 61.3°F16.3°C 57.4°F14.1°C 87% 5.3 mph SW8.5 kmh SW 7.7 mph12.4 kmh 29.71 in1006.1 mb 0.00 in0.0 mm 0.00 in0.0 mm 0.00 in0.0 mm
07:59 PM 61.2°F16.2°C 57.6°F14.2°C 88% 6.5 mph SW10.5 kmh SW 9.0 mph14.5 kmh 29.71 in1006.1 mb 0.00 in0.0 mm 0.00 in0.0 mm 0.00 in0.0 mm
08:04 PM 61.1°F16.2°C 57.5°F14.2°C 88% 6.6 mph SW10.6 kmh SW 8.1 mph13.0 kmh 29.71 in1006.1 mb 0.00 in0.0 mm 0.00 in0.0 mm 0.00 in0.0 mm
08:09 PM 61.0°F16.1°C 57.7°F14.3°C 89% 4.1 mph SW6.6 kmh SW 7.5 mph12.1 kmh 29.71 in1006.1 mb 0.00 in0.0 mm 0.00 in0.0 mm 0.00 in0.0 mm
08:14 PM 60.9°F16.1°C 57.6°F14.2°C 89% 3.1 mph SW5.0 kmh SW 6.5 mph10.5 kmh 29.71 in1006.1 mb 0.00 in0.0 mm 0.00 in0.0 mm 0.00 in0.0 mm
08:19 PM 60.7°F15.9°C 57.4°F14.1°C 89% 3.9 mph SW6.3 kmh SW 5.0 mph8.0 kmh 29.71 in1006.1 mb 0.00 in0.0 mm 0.00 in0.0 mm 0.00 in0.0 mm
08:24 PM 60.7°F15.9°C 57.7°F14.3°C 90% 4.0 mph SSW6.4 kmh SSW 6.5 mph10.5 kmh 29.71 in1006.1 mb 0.00 in0.0 mm 0.00 in0.0 mm 0.00 in0.0 mm
08:29 PM 60.6°F15.9°C 57.6°F14.2°C 90% 5.7 mph SSW9.2 kmh SSW 7.7 mph12.4 kmh 29.71 in1006.1 mb 0.00 in0.0 mm 0.00 in0.0 mm 0.00 in0.0 mm
08:34 PM 60.5°F15.8°C 57.9°F14.4°C 91% 5.4 mph SSW8.7 kmh SSW 8.4 mph13.5 kmh 29.70 in1005.8 mb 0.00 in0.0 mm 0.00 in0.0 mm 0.00 in0.0 mm
08:39 PM 60.4°F15.8°C 57.8°F14.3°C 91% 4.7 mph SSW7.6 kmh SSW 6.2 mph10.0 kmh 29.71 in1006.1 mb 0.00 in0.0 mm 0.00 in0.0 mm 0.00 in0.0 mm
08:44 PM 60.4°F15.8°C 58.1°F14.5°C 92% 4.7 mph SW7.6 kmh SW 8.5 mph13.7 kmh 29.71 in1006.1 mb 0.00 in0.0 mm 0.00 in0.0 mm 0.00 in0.0 mm
08:49 PM 60.3°F15.7°C 57.7°F14.3°C 91% 3.9 mph SW6.3 kmh SW 5.0 mph8.0 kmh 29.71 in1006.1 mb 0.00 in0.0 mm 0.00 in0.0 mm 0.00 in0.0 mm
08:54 PM 60.2°F15.7°C 57.9°F14.4°C 92% 4.1 mph SSW6.6 kmh SSW 5.4 mph8.7 kmh 29.71 in1006.1 mb 0.00 in0.0 mm 0.00 in0.0 mm 0.00 in0.0 mm
08:59 PM 60.2°F15.7°C 58.2°F14.6°C 93% 4.4 mph SW7.1 kmh SW 8.5 mph13.7 kmh 29.71 in1006.1 mb 0.00 in0.0 mm 0.00 in0.0 mm 0.00 in0.0 mm
09:04 PM 60.4°F15.8°C 58.4°F14.7°C 93% 3.5 mph SSW5.6 kmh SSW 4.9 mph7.9 kmh 29.70 in1005.8 mb 0.00 in0.0 mm 0.00 in0.0 mm 0.00 in0.0 mm
09:09 PM 60.2°F15.7°C 58.2°F14.6°C 93% 5.2 mph SSW8.4 kmh SSW 7.5 mph12.1 kmh 29.71 in1006.1 mb 0.00 in0.0 mm 0.00 in0.0 mm 0.00 in0.0 mm
09:14 PM 60.2°F15.7°C 58.2°F14.6°C 93% 3.5 mph SSW5.6 kmh SSW 5.7 mph9.2 kmh 29.71 in1006.1 mb 0.00 in0.0 mm 0.00 in0.0 mm 0.00 in0.0 mm
09:19 PM 60.0°F15.6°C 58.3°F14.6°C 94% 6.2 mph SW10.0 kmh SW 8.4 mph13.5 kmh 29.71 in1006.1 mb 0.00 in0.0 mm 0.00 in0.0 mm 0.00 in0.0 mm
09:24 PM 59.9°F15.5°C 58.2°F14.6°C 94% 3.4 mph SW5.5 kmh SW 5.7 mph9.2 kmh 29.70 in1005.8 mb 0.00 in0.0 mm 0.00 in0.0 mm 0.00 in0.0 mm
09:29 PM 59.7°F15.4°C 58.0°F14.4°C 94% 4.4 mph SW7.1 kmh SW 7.9 mph12.7 kmh 29.70 in1005.8 mb 0.00 in0.0 mm 0.00 in0.0 mm 0.00 in0.0 mm
09:34 PM 59.7°F15.4°C 58.0°F14.4°C 94% 2.5 mph SW4.0 kmh SW 5.7 mph9.2 kmh 29.71 in1006.1 mb 0.00 in0.0 mm 0.00 in0.0 mm 0.00 in0.0 mm
09:39 PM 59.7°F15.4°C 57.7°F14.3°C 93% 4.9 mph WSW7.9 kmh WSW 9.0 mph14.5 kmh 29.71 in1006.1 mb 0.00 in0.0 mm 0.00 in0.0 mm 0.00 in0.0 mm
09:44 PM 59.6°F15.3°C 58.2°F14.6°C 95% 5.2 mph SW8.4 kmh SW 11.1 mph17.9 kmh 29.71 in1006.1 mb 0.00 in0.0 mm 0.00 in0.0 mm 0.00 in0.0 mm
09:49 PM 59.4°F15.2°C 58.0°F14.4°C 95% 5.9 mph SW9.5 kmh SW 7.5 mph12.1 kmh 29.70 in1005.8 mb 0.00 in0.0 mm 0.00 in0.0 mm 0.00 in0.0 mm
09:54 PM 59.2°F15.1°C 57.8°F14.3°C 95% 6.3 mph SSW10.1 kmh SSW 8.4 mph13.5 kmh 29.70 in1005.8 mb 0.00 in0.0 mm 0.00 in0.0 mm 0.00 in0.0 mm
09:59 PM 59.0°F15.0°C 57.9°F14.4°C 96% 6.6 mph SSW10.6 kmh SSW 9.5 mph15.3 kmh 29.70 in1005.8 mb 0.00 in0.0 mm 0.00 in0.0 mm 0.00 in0.0 mm
10:04 PM 59.0°F15.0°C 57.6°F14.2°C 95% 5.6 mph SSW9.0 kmh SSW 7.2 mph11.6 kmh 29.69 in1005.4 mb 0.00 in0.0 mm 0.00 in0.0 mm 0.00 in0.0 mm
10:09 PM 58.9°F14.9°C 57.8°F14.3°C 96% 5.7 mph SSW9.2 kmh SSW 7.9 mph12.7 kmh 29.69 in1005.4 mb 0.00 in0.0 mm 0.00 in0.0 mm 0.00 in0.0 mm
10:14 PM 58.8°F14.9°C 57.4°F14.1°C 95% 6.7 mph SSW10.8 kmh SSW 8.9 mph14.3 kmh 29.69 in1005.4 mb 0.00 in0.0 mm 0.00 in0.0 mm 0.00 in0.0 mm
10:19 PM 58.8°F14.9°C 57.4°F14.1°C 95% 5.3 mph SW8.5 kmh SW 7.5 mph12.1 kmh 29.68 in1005.1 mb 0.00 in0.0 mm 0.00 in0.0 mm 0.00 in0.0 mm
10:24 PM 58.8°F14.9°C 57.7°F14.3°C 96% 4.0 mph SSW6.4 kmh SSW 6.5 mph10.5 kmh 29.68 in1005.1 mb 0.00 in0.0 mm 0.00 in0.0 mm 0.00 in0.0 mm
10:29 PM 58.7°F14.8°C 57.6°F14.2°C 96% 4.8 mph SSW7.7 kmh SSW 7.0 mph11.3 kmh 29.68 in1005.1 mb 0.00 in0.0 mm 0.00 in0.0 mm 0.00 in0.0 mm
10:34 PM 58.7°F14.8°C 57.8°F14.3°C 97% 6.1 mph SW9.8 kmh SW 7.9 mph12.7 kmh 29.67 in1004.7 mb 0.00 in0.0 mm 0.00 in0.0 mm 0.00 in0.0 mm
10:39 PM 58.7°F14.8°C 57.8°F14.3°C 97% 6.0 mph SSW9.7 kmh SSW 8.1 mph13.0 kmh 29.67 in1004.7 mb 0.00 in0.0 mm 0.00 in0.0 mm 0.00 in0.0 mm
10:44 PM 58.7°F14.8°C 57.8°F14.3°C 97% 5.7 mph SSW9.2 kmh SSW 7.5 mph12.1 kmh 29.67 in1004.7 mb 0.00 in0.0 mm 0.00 in0.0 mm 0.00 in0.0 mm
10:49 PM 58.6°F14.8°C 58.0°F14.4°C 98% 6.0 mph SSW9.7 kmh SSW 8.1 mph13.0 kmh 29.67 in1004.7 mb 0.00 in0.0 mm 0.00 in0.0 mm 0.00 in0.0 mm
10:54 PM 58.6°F14.8°C 58.0°F14.4°C 98% 4.0 mph SSW6.4 kmh SSW 4.7 mph7.6 kmh 29.67 in1004.7 mb 0.00 in0.0 mm 0.00 in0.0 mm 0.00 in0.0 mm
10:59 PM 58.6°F14.8°C 58.0°F14.4°C 98% 5.7 mph SSW9.2 kmh SSW 7.9 mph12.7 kmh 29.66 in1004.4 mb 0.00 in0.0 mm 0.00 in0.0 mm 0.00 in0.0 mm
11:04 PM 58.5°F14.7°C 57.9°F14.4°C 98% 4.9 mph SW7.9 kmh SW 7.9 mph12.7 kmh 29.67 in1004.7 mb 0.00 in0.0 mm 0.00 in0.0 mm 0.00 in0.0 mm
11:09 PM 58.5°F14.7°C 57.9°F14.4°C 98% 4.1 mph SW6.6 kmh SW 4.9 mph7.9 kmh 29.67 in1004.7 mb 0.00 in0.0 mm 0.00 in0.0 mm 0.00 in0.0 mm
11:14 PM 58.5°F14.7°C 57.9°F14.4°C 98% 4.9 mph SSW7.9 kmh SSW 6.0 mph9.7 kmh 29.66 in1004.4 mb 0.00 in0.0 mm 0.00 in0.0 mm 0.00 in0.0 mm
11:19 PM 58.3°F14.6°C 57.5°F14.2°C 97% 4.6 mph SSW7.4 kmh SSW 5.4 mph8.7 kmh 29.65 in1004.1 mb 0.00 in0.0 mm 0.00 in0.0 mm 0.00 in0.0 mm
11:24 PM 58.4°F14.7°C 57.8°F14.3°C 98% 6.1 mph SW9.8 kmh SW 8.4 mph13.5 kmh 29.65 in1004.1 mb 0.00 in0.0 mm 0.00 in0.0 mm 0.00 in0.0 mm
11:29 PM 58.5°F14.7°C 57.9°F14.4°C 98% 6.7 mph SSW10.8 kmh SSW 7.9 mph12.7 kmh 29.65 in1004.1 mb 0.00 in0.0 mm 0.00 in0.0 mm 0.00 in0.0 mm
11:34 PM 58.5°F14.7°C 57.9°F14.4°C 98% 5.0 mph SSW8.0 kmh SSW 6.5 mph10.5 kmh 29.65 in1004.1 mb 0.00 in0.0 mm 0.00 in0.0 mm 0.00 in0.0 mm
11:39 PM 58.5°F14.7°C 57.7°F14.3°C 97% 5.0 mph SSW8.0 kmh SSW 7.5 mph12.1 kmh 29.65 in1004.1 mb 0.00 in0.0 mm 0.00 in0.0 mm 0.00 in0.0 mm
11:44 PM 58.6°F14.8°C 58.0°F14.4°C 98% 4.0 mph SSW6.4 kmh SSW 4.9 mph7.9 kmh 29.65 in1004.1 mb 0.00 in0.0 mm 0.00 in0.0 mm 0.00 in0.0 mm
11:49 PM 58.6°F14.8°C 58.3°F14.6°C 99% 2.7 mph SSW4.3 kmh SSW 3.5 mph5.6 kmh 29.64 in1003.7 mb 0.00 in0.0 mm 0.00 in0.0 mm 0.00 in0.0 mm
11:54 PM 58.7°F14.8°C 58.1°F14.5°C 98% 3.9 mph SW6.3 kmh SW 5.7 mph9.2 kmh 29.64 in1003.7 mb 0.00 in0.0 mm 0.00 in0.0 mm 0.00 in0.0 mm